createdAt,value
2019-02-25T00:01:05.100Z,3.50
2019-02-25T00:04:11.245Z,3.46
2019-02-25T00:07:17.274Z,3.41
2019-02-25T00:10:23.126Z,3.40
2019-02-25T00:13:29.112Z,3.37
2019-02-25T00:16:34.863Z,3.37
2019-02-25T00:19:43.421Z,3.32
2019-02-25T00:22:49.668Z,3.33
2019-02-25T00:25:55.720Z,3.33
2019-02-25T00:29:01.656Z,3.27
2019-02-25T00:32:07.517Z,3.24
2019-02-25T00:35:23.615Z,3.20
2019-02-25T00:38:28.557Z,3.20
2019-02-25T00:41:33.228Z,3.15
2019-02-25T00:44:38.054Z,3.13
2019-02-25T00:47:43.171Z,3.10
2019-02-25T00:50:47.461Z,3.12
2019-02-25T00:53:52.065Z,3.32
2019-02-25T00:56:56.419Z,3.35
2019-02-25T01:00:00.724Z,3.39
2019-02-25T01:03:05.652Z,3.43
2019-02-25T01:06:09.975Z,3.58
2019-02-25T01:09:14.282Z,3.43
2019-02-25T01:12:18.580Z,3.19
2019-02-25T01:15:23.137Z,3.10
2019-02-25T01:18:27.438Z,3.25
2019-02-25T01:21:35.092Z,3.24
2019-02-25T01:24:39.403Z,3.37
2019-02-25T01:27:43.721Z,3.54
2019-02-25T01:30:48.012Z,3.59
2019-02-25T01:33:52.321Z,3.64
2019-02-25T01:36:56.874Z,3.65
2019-02-25T01:40:01.159Z,3.63
2019-02-25T01:43:05.446Z,3.60
2019-02-25T01:46:09.787Z,3.53
2019-02-25T01:49:14.141Z,3.48
2019-02-25T01:52:18.439Z,3.37
2019-02-25T01:55:22.773Z,3.27
2019-02-25T01:58:27.056Z,3.23
2019-02-25T02:01:31.366Z,3.20
2019-02-25T02:04:35.652Z,3.23
2019-02-25T02:07:39.932Z,3.22
2019-02-25T02:10:44.238Z,3.19
2019-02-25T02:13:48.519Z,3.19
2019-02-25T02:16:52.794Z,3.18
2019-02-25T02:19:57.083Z,3.15
2019-02-25T02:23:01.405Z,3.13
2019-02-25T02:26:05.709Z,3.00
2019-02-25T02:29:09.978Z,2.93
2019-02-25T02:32:14.284Z,2.90
2019-02-25T02:35:21.804Z,2.90
2019-02-25T02:38:26.345Z,2.91
2019-02-25T02:41:32.309Z,2.85
2019-02-25T02:44:37.756Z,2.87
2019-02-25T02:47:53.983Z,2.84
2019-02-25T02:50:59.742Z,2.68
2019-02-25T02:54:06.880Z,2.53
2019-02-25T02:57:11.449Z,2.48
2019-02-25T03:00:17.552Z,2.46
2019-02-25T03:03:21.908Z,2.52
2019-02-25T03:06:26.214Z,2.49
2019-02-25T03:09:30.521Z,2.50
2019-02-25T03:12:34.827Z,2.48
2019-02-25T03:15:39.127Z,2.52
2019-02-25T03:18:43.425Z,2.52
2019-02-25T03:21:47.727Z,2.51
2019-02-25T03:24:52.250Z,2.48
2019-02-25T03:27:56.592Z,2.43
2019-02-25T03:31:00.892Z,2.47
2019-02-25T03:34:05.330Z,2.50
2019-02-25T03:37:09.605Z,2.45
2019-02-25T03:40:15.811Z,2.38
2019-02-25T03:43:20.245Z,2.32
2019-02-25T03:46:24.566Z,2.27
2019-02-25T03:49:28.877Z,2.24
2019-02-25T03:52:33.173Z,2.27
2019-02-25T03:55:37.460Z,2.23
2019-02-25T03:58:41.772Z,2.17
2019-02-25T04:01:46.086Z,2.15
2019-02-25T04:04:50.397Z,2.16
2019-02-25T04:07:54.797Z,2.20
2019-02-25T04:11:02.129Z,2.17
2019-02-25T04:14:06.418Z,2.12
2019-02-25T04:17:10.739Z,2.11
2019-02-25T04:20:15.955Z,2.11
2019-02-25T04:23:20.248Z,2.10
2019-02-25T04:26:24.583Z,2.02
2019-02-25T04:29:28.859Z,2.00
2019-02-25T04:32:35.701Z,2.12
2019-02-25T04:35:40.013Z,2.29
2019-02-25T04:38:44.311Z,2.26
2019-02-25T04:41:48.629Z,2.11
2019-02-25T04:44:52.973Z,2.13
2019-02-25T04:47:57.327Z,2.21
2019-02-25T04:51:01.670Z,2.30
2019-02-25T04:54:07.693Z,2.29
2019-02-25T04:57:12.057Z,2.10
2019-02-25T05:00:17.466Z,2.09
2019-02-25T05:03:21.926Z,2.10
2019-02-25T05:06:29.278Z,2.08
2019-02-25T05:09:33.593Z,2.10
2019-02-25T05:12:38.868Z,2.09
2019-02-25T05:15:43.265Z,2.19
2019-02-25T05:18:47.536Z,2.16
2019-02-25T05:21:51.874Z,2.02
2019-02-25T05:24:56.264Z,1.94
2019-02-25T05:28:00.650Z,2.02
2019-02-25T05:31:04.937Z,2.11
2019-02-25T05:34:09.450Z,2.17
2019-02-25T05:37:13.737Z,2.15
2019-02-25T05:40:18.060Z,2.20
2019-02-25T05:43:22.450Z,2.18
2019-02-25T05:46:26.794Z,2.17
2019-02-25T05:49:31.071Z,2.19
2019-02-25T05:52:35.403Z,2.31
2019-02-25T05:55:39.715Z,2.36
2019-02-25T05:58:44.036Z,2.38
2019-02-25T06:01:48.323Z,2.32
2019-02-25T06:04:52.631Z,2.31
2019-02-25T06:07:58.147Z,2.16
2019-02-25T06:11:02.464Z,2.15
2019-02-25T06:14:06.816Z,2.13
2019-02-25T06:17:11.097Z,2.10
2019-02-25T06:20:15.633Z,2.05
2019-02-25T06:23:19.927Z,1.94
2019-02-25T06:26:24.208Z,1.85
2019-02-25T06:29:28.489Z,1.83
2019-02-25T06:32:32.825Z,1.95
2019-02-25T06:35:37.317Z,1.85
2019-02-25T06:38:41.603Z,1.85
2019-02-25T06:41:45.928Z,1.85
2019-02-25T06:44:50.205Z,1.83
2019-02-25T06:47:54.497Z,1.93
2019-02-25T06:50:58.812Z,1.95
2019-02-25T06:54:03.117Z,2.01
2019-02-25T06:57:07.470Z,1.95
2019-02-25T07:00:17.027Z,1.98
2019-02-25T07:03:21.361Z,2.01
2019-02-25T07:06:32.095Z,1.99
2019-02-25T07:09:58.885Z,2.11
2019-02-25T07:13:17.400Z,2.04
2019-02-25T07:16:27.973Z,2.11
2019-02-25T07:19:42.199Z,2.05
2019-02-25T07:23:11.847Z,2.01
2019-02-25T07:26:38.140Z,2.10
2019-02-25T07:30:04.249Z,2.19
2019-02-25T07:33:20.923Z,2.21
2019-02-25T07:36:53.336Z,2.38
2019-02-25T07:40:13.431Z,2.43
2019-02-25T07:43:27.955Z,2.49
2019-02-25T07:46:53.705Z,2.47
2019-02-25T07:50:07.407Z,2.59
2019-02-25T07:53:33.701Z,2.81
2019-02-25T07:56:55.612Z,2.85
2019-02-25T08:00:21.955Z,2.86
2019-02-25T08:04:00.631Z,2.99
2019-02-25T08:07:15.925Z,3.05
2019-02-25T08:10:39.140Z,3.11
2019-02-25T08:13:59.856Z,3.17
2019-02-25T08:17:25.216Z,3.07
2019-02-25T08:20:37.515Z,3.07
2019-02-25T08:23:58.985Z,3.07
2019-02-25T08:27:25.284Z,3.26
2019-02-25T08:30:46.794Z,3.24
2019-02-25T08:34:08.642Z,3.17
2019-02-25T08:37:49.670Z,3.34
2019-02-25T08:41:23.788Z,3.51
2019-02-25T08:44:36.964Z,3.70
2019-02-25T08:47:58.974Z,3.66
2019-02-25T08:51:03.298Z,3.83
2019-02-25T08:54:07.604Z,3.87
2019-02-25T08:57:12.259Z,3.97
2019-02-25T09:00:16.634Z,3.99
2019-02-25T09:03:20.922Z,4.18
2019-02-25T09:06:25.224Z,4.27
2019-02-25T09:09:29.633Z,4.41
2019-02-25T09:12:34.423Z,4.56
2019-02-25T09:15:38.734Z,4.44
2019-02-25T09:18:43.021Z,4.65
2019-02-25T09:21:47.365Z,4.61
2019-02-25T09:24:51.637Z,4.73
2019-02-25T09:27:55.968Z,4.69
2019-02-25T09:31:00.364Z,4.63
2019-02-25T09:34:04.671Z,4.46
2019-02-25T09:37:09.075Z,4.45
2019-02-25T09:40:15.044Z,4.54
2019-02-25T09:43:19.604Z,4.55
2019-02-25T09:46:24.213Z,4.61
2019-02-25T09:49:28.607Z,4.79
2019-02-25T09:52:32.888Z,4.86
2019-02-25T09:55:37.262Z,4.88
2019-02-25T09:58:41.563Z,5.05
2019-02-25T10:01:48.689Z,5.12
2019-02-25T10:04:53.069Z,5.14
2019-02-25T10:07:57.545Z,5.19
2019-02-25T10:11:01.987Z,5.41
2019-02-25T10:14:06.426Z,5.65
2019-02-25T10:17:10.747Z,5.84
2019-02-25T10:20:15.060Z,6.03
2019-02-25T10:23:22.431Z,6.05
2019-02-25T10:26:26.701Z,6.05
2019-02-25T10:29:31.003Z,6.14
2019-02-25T10:32:35.341Z,6.36
2019-02-25T10:35:39.647Z,6.58
2019-02-25T10:38:43.960Z,6.75
2019-02-25T10:41:48.303Z,6.94
2019-02-25T10:44:52.582Z,7.17
2019-02-25T10:47:58.788Z,7.28
2019-02-25T10:51:04.694Z,7.33
2019-02-25T10:54:09.118Z,7.34
2019-02-25T10:57:17.299Z,7.47
2019-02-25T11:00:21.816Z,7.57
2019-02-25T11:03:26.096Z,7.73
2019-02-25T11:06:32.399Z,7.87
2019-02-25T11:09:43.947Z,7.97
2019-02-25T11:12:48.007Z,7.99
2019-02-25T11:15:52.289Z,8.07
2019-02-25T11:19:00.795Z,8.18
2019-02-25T11:22:05.512Z,8.22
2019-02-25T11:25:13.278Z,8.38
2019-02-25T11:28:25.538Z,8.50
2019-02-25T11:31:26.331Z,8.67
2019-02-25T11:34:31.466Z,8.72
2019-02-25T11:37:35.661Z,8.85
2019-02-25T11:40:39.973Z,8.81
2019-02-25T11:43:46.424Z,8.85
2019-02-25T11:46:52.848Z,8.88
2019-02-25T11:49:57.193Z,8.97
2019-02-25T11:53:01.508Z,8.86
2019-02-25T11:56:05.807Z,8.89
2019-02-25T11:59:11.393Z,8.92
2019-02-25T12:02:25.290Z,8.95
2019-02-25T12:05:27.207Z,9.18
2019-02-25T12:08:31.600Z,9.12
2019-02-25T12:11:36.007Z,9.13
2019-02-25T12:14:40.292Z,9.18
2019-02-25T12:17:49.159Z,9.23
2019-02-25T12:20:53.646Z,9.26
2019-02-25T12:23:58.040Z,9.42
2019-02-25T12:27:02.437Z,9.59
2019-02-25T12:30:13.064Z,9.59
2019-02-25T12:33:17.479Z,9.74
2019-02-25T12:36:21.768Z,9.92
2019-02-25T12:39:26.053Z,9.99
2019-02-25T12:42:30.325Z,10.10
2019-02-25T12:45:34.703Z,10.15
2019-02-25T12:48:39.891Z,10.26
2019-02-25T12:51:44.286Z,10.39
2019-02-25T12:54:48.545Z,10.49
2019-02-25T12:57:52.843Z,10.73
2019-02-25T13:00:57.267Z,10.68
2019-02-25T13:04:01.570Z,10.62
2019-02-25T13:07:05.867Z,10.74
2019-02-25T13:10:11.985Z,10.69
2019-02-25T13:13:16.332Z,10.80
2019-02-25T13:16:20.776Z,10.91
2019-02-25T13:19:25.063Z,10.95
2019-02-25T13:22:29.383Z,11.08
2019-02-25T13:25:35.878Z,11.07
2019-02-25T13:28:40.176Z,11.17
2019-02-25T13:31:44.477Z,11.29
2019-02-25T13:34:50.492Z,11.30
2019-02-25T13:37:57.602Z,11.42
2019-02-25T13:41:02.221Z,11.43
2019-02-25T13:44:06.555Z,11.44
2019-02-25T13:47:10.837Z,11.52
2019-02-25T13:50:15.247Z,11.53
2019-02-25T13:53:22.655Z,11.60
2019-02-25T13:56:27.032Z,11.62
2019-02-25T13:59:31.331Z,11.73
2019-02-25T14:02:35.669Z,11.79
2019-02-25T14:05:40.056Z,11.96
2019-02-25T14:08:44.342Z,11.95
2019-02-25T14:11:48.657Z,12.07
2019-02-25T14:14:53.055Z,12.04
2019-02-25T14:17:57.368Z,12.00
2019-02-25T14:21:01.729Z,12.02
2019-02-25T14:24:06.208Z,12.05
2019-02-25T14:27:11.778Z,11.98
2019-02-25T14:30:20.579Z,11.94
2019-02-25T14:33:24.907Z,11.92
2019-02-25T14:36:29.333Z,11.93
2019-02-25T14:39:35.941Z,11.98
2019-02-25T14:42:44.623Z,12.01
2019-02-25T14:45:46.589Z,11.93
2019-02-25T14:48:52.194Z,11.78
2019-02-25T14:51:56.706Z,11.78
2019-02-25T14:55:02.248Z,11.83
2019-02-25T14:58:07.970Z,11.69
2019-02-25T15:01:13.057Z,11.58
2019-02-25T15:04:17.380Z,11.47
2019-02-25T15:07:21.775Z,11.42
2019-02-25T15:10:29.103Z,11.36
2019-02-25T15:13:33.391Z,11.34
2019-02-25T15:16:38.908Z,11.30
2019-02-25T15:19:43.200Z,11.33
2019-02-25T15:22:47.852Z,11.29
2019-02-25T15:25:52.155Z,11.25
2019-02-25T15:28:58.556Z,11.16
2019-02-25T15:32:02.512Z,11.11
2019-02-25T15:35:08.730Z,11.04
2019-02-25T15:38:13.181Z,10.99
2019-02-25T15:41:17.585Z,10.89
2019-02-25T15:44:21.997Z,10.81
2019-02-25T15:47:26.621Z,10.76
2019-02-25T15:50:31.163Z,10.69
2019-02-25T15:53:36.951Z,10.62
2019-02-25T15:56:41.526Z,10.49
2019-02-25T15:59:45.867Z,10.36
2019-02-25T16:02:52.238Z,10.23
2019-02-25T16:05:59.271Z,10.13
2019-02-25T16:09:03.826Z,10.07
2019-02-25T16:12:09.686Z,10.00
2019-02-25T16:15:15.239Z,9.95
2019-02-25T16:18:21.270Z,9.90
2019-02-25T16:21:26.609Z,9.81
2019-02-25T16:24:35.150Z,9.73
2019-02-25T16:27:40.786Z,9.67
2019-02-25T16:30:49.127Z,9.60
2019-02-25T16:33:57.690Z,9.52
2019-02-25T16:37:04.839Z,9.43
2019-02-25T16:40:11.015Z,9.36
2019-02-25T16:43:15.592Z,9.26
2019-02-25T16:46:20.734Z,9.17
2019-02-25T16:49:25.100Z,9.05
2019-02-25T16:52:30.091Z,9.01
2019-02-25T16:55:34.566Z,8.92
2019-02-25T16:58:39.128Z,8.85
2019-02-25T17:01:44.044Z,8.77
2019-02-25T17:04:48.538Z,8.68
2019-02-25T17:07:52.946Z,8.65
2019-02-25T17:10:57.893Z,8.59
2019-02-25T17:14:03.907Z,8.53
2019-02-25T17:17:08.805Z,8.46
2019-02-25T17:20:15.077Z,8.37
2019-02-25T17:23:19.681Z,8.29
2019-02-25T17:26:24.190Z,8.20
2019-02-25T17:29:29.140Z,8.21
2019-02-25T17:32:34.969Z,8.09
2019-02-25T17:35:39.554Z,8.02
2019-02-25T17:38:45.394Z,8.01
2019-02-25T17:41:52.916Z,7.94
2019-02-25T17:44:59.721Z,7.83
2019-02-25T17:48:08.066Z,7.74
2019-02-25T17:51:10.327Z,7.71
2019-02-25T17:54:16.409Z,7.62
2019-02-25T17:57:20.882Z,7.55
2019-02-25T18:00:35.050Z,7.50
2019-02-25T18:03:39.641Z,7.45
2019-02-25T18:06:45.085Z,7.35
2019-02-25T18:09:49.789Z,7.26
2019-02-25T18:12:56.386Z,7.17
2019-02-25T18:16:01.071Z,7.09
2019-02-25T18:19:05.627Z,7.01
2019-02-25T18:22:11.640Z,6.92
2019-02-25T18:25:20.494Z,6.85
2019-02-25T18:28:23.449Z,6.78
2019-02-25T18:31:28.232Z,6.74
2019-02-25T18:34:34.431Z,6.68
2019-02-25T18:37:40.196Z,6.64
2019-02-25T18:40:46.317Z,6.68
2019-02-25T18:43:53.071Z,6.60
2019-02-25T18:46:59.782Z,6.57
2019-02-25T18:50:06.084Z,6.48
2019-02-25T18:53:18.782Z,6.46
2019-02-25T18:56:24.507Z,6.43
2019-02-25T18:59:29.123Z,6.42
2019-02-25T19:02:34.341Z,6.42
2019-02-25T19:05:39.862Z,6.35
2019-02-25T19:08:45.331Z,6.35
2019-02-25T19:11:51.212Z,6.34
2019-02-25T19:15:00.602Z,6.33
2019-02-25T19:18:06.878Z,6.28
2019-02-25T19:21:12.599Z,6.24
2019-02-25T19:24:18.287Z,6.18
2019-02-25T19:27:24.731Z,6.22
2019-02-25T19:30:31.740Z,6.12
2019-02-25T19:33:37.058Z,6.14
2019-02-25T19:36:43.659Z,6.13
2019-02-25T19:39:51.564Z,6.08
2019-02-25T19:42:59.241Z,6.03
2019-02-25T19:46:06.322Z,6.02
2019-02-25T19:49:12.028Z,5.99
2019-02-25T19:52:17.668Z,5.99
2019-02-25T19:55:23.455Z,5.91
2019-02-25T19:58:32.947Z,5.89
2019-02-25T20:01:34.401Z,5.84
2019-02-25T20:04:40.058Z,5.78
2019-02-25T20:07:46.165Z,5.76
2019-02-25T20:10:54.310Z,5.74
2019-02-25T20:14:00.925Z,5.71
2019-02-25T20:17:04.217Z,5.74
2019-02-25T20:20:11.157Z,5.70
2019-02-25T20:23:20.251Z,5.66
2019-02-25T20:26:26.907Z,5.63
2019-02-25T20:29:31.458Z,5.65
2019-02-25T20:32:36.471Z,5.64
2019-02-25T20:35:44.991Z,5.67
2019-02-25T20:38:48.776Z,5.69
2019-02-25T20:41:54.363Z,5.62
2019-02-25T20:45:00.622Z,5.59
2019-02-25T20:48:06.232Z,5.57
2019-02-25T20:51:12.678Z,5.52
2019-02-25T20:54:21.051Z,5.51
2019-02-25T20:57:25.825Z,5.50
2019-02-25T21:00:30.450Z,5.43
2019-02-25T21:03:34.968Z,5.38
2019-02-25T21:06:43.946Z,5.35
2019-02-25T21:09:49.892Z,5.35
2019-02-25T21:12:55.186Z,5.42
2019-02-25T21:16:02.462Z,5.39
2019-02-25T21:19:08.117Z,5.34
2019-02-25T21:22:13.886Z,5.31
2019-02-25T21:25:22.161Z,5.30
2019-02-25T21:28:27.352Z,5.29
2019-02-25T21:31:31.124Z,5.26
2019-02-25T21:34:35.787Z,5.12
2019-02-25T21:37:43.387Z,5.08
2019-02-25T21:40:48.283Z,5.01
2019-02-25T21:43:54.062Z,4.95
2019-02-25T21:47:01.098Z,4.92
2019-02-25T21:50:07.428Z,4.89
2019-02-25T21:53:13.869Z,4.80
2019-02-25T21:56:18.903Z,4.78
2019-02-25T21:59:24.096Z,4.73
2019-02-25T22:02:28.509Z,4.70
2019-02-25T22:05:32.973Z,4.67
2019-02-25T22:08:37.305Z,4.71
2019-02-25T22:11:41.619Z,4.71
2019-02-25T22:14:47.685Z,4.68
2019-02-25T22:17:53.409Z,4.67
2019-02-25T22:20:58.071Z,4.66
2019-02-25T22:24:04.912Z,4.66
2019-02-25T22:27:08.745Z,4.71
2019-02-25T22:30:15.005Z,4.71
2019-02-25T22:33:26.807Z,4.73
2019-02-25T22:36:26.056Z,4.75
2019-02-25T22:39:31.978Z,4.75
2019-02-25T22:42:36.370Z,4.71
2019-02-25T22:45:42.031Z,4.69
2019-02-25T22:48:47.334Z,4.68
2019-02-25T22:51:55.744Z,4.68
2019-02-25T22:54:58.525Z,4.69
2019-02-25T22:58:06.040Z,4.71
2019-02-25T23:01:17.540Z,4.70
2019-02-25T23:04:21.920Z,4.67
2019-02-25T23:07:26.407Z,4.60
2019-02-25T23:10:30.692Z,4.57
2019-02-25T23:13:35.805Z,4.55
2019-02-25T23:16:41.531Z,4.54
2019-02-25T23:19:48.114Z,4.54
2019-02-25T23:22:56.894Z,4.56
2019-02-25T23:26:01.977Z,4.60
2019-02-25T23:29:06.324Z,4.63
2019-02-25T23:32:11.424Z,4.67
2019-02-25T23:35:18.267Z,4.72
2019-02-25T23:38:23.040Z,4.79
2019-02-25T23:41:31.886Z,4.83
2019-02-25T23:44:34.726Z,4.87
2019-02-25T23:47:40.028Z,4.91
2019-02-25T23:50:48.492Z,4.95
2019-02-25T23:53:51.287Z,4.93
2019-02-25T23:56:57.881Z,4.93
